sensor_id;sensor_type;location;lat;lon;timestamp;P1;durP1;ratioP1;P2;durP2;ratioP2
22894;SDS011;11614;52.494;6.976;2022-10-18T00:01:51;142.23;;;59.93;;
22894;SDS011;11614;52.494;6.976;2022-10-18T00:04:17;143.37;;;62.53;;
22894;SDS011;11614;52.494;6.976;2022-10-18T00:06:43;144.83;;;62.50;;
22894;SDS011;11614;52.494;6.976;2022-10-18T00:09:09;158.83;;;63.10;;
22894;SDS011;11614;52.494;6.976;2022-10-18T00:11:35;155.30;;;63.70;;
22894;SDS011;11614;52.494;6.976;2022-10-18T00:14:00;148.00;;;64.60;;
22894;SDS011;11614;52.494;6.976;2022-10-18T00:16:26;142.93;;;65.43;;
22894;SDS011;11614;52.494;6.976;2022-10-18T00:18:52;153.67;;;64.93;;
22894;SDS011;11614;52.494;6.976;2022-10-18T00:21:18;149.13;;;64.17;;
22894;SDS011;11614;52.494;6.976;2022-10-18T00:23:45;151.63;;;66.40;;
22894;SDS011;11614;52.494;6.976;2022-10-18T00:26:16;146.27;;;65.00;;
22894;SDS011;11614;52.494;6.976;2022-10-18T00:28:44;153.03;;;65.57;;
22894;SDS011;11614;52.494;6.976;2022-10-18T00:33:35;159.77;;;65.87;;
22894;SDS011;11614;52.494;6.976;2022-10-18T00:36:01;152.47;;;63.97;;
22894;SDS011;11614;52.494;6.976;2022-10-18T00:38:27;152.07;;;63.30;;
22894;SDS011;11614;52.494;6.976;2022-10-18T00:40:53;146.00;;;63.47;;
22894;SDS011;11614;52.494;6.976;2022-10-18T00:43:18;154.43;;;66.03;;
22894;SDS011;11614;52.494;6.976;2022-10-18T00:45:44;149.47;;;66.07;;
22894;SDS011;11614;52.494;6.976;2022-10-18T00:48:10;159.10;;;65.40;;
22894;SDS011;11614;52.494;6.976;2022-10-18T00:50:37;134.43;;;62.80;;
22894;SDS011;11614;52.494;6.976;2022-10-18T00:53:05;145.07;;;66.33;;
22894;SDS011;11614;52.494;6.976;2022-10-18T00:55:36;158.70;;;67.00;;
22894;SDS011;11614;52.494;6.976;2022-10-18T00:58:01;153.27;;;62.60;;
22894;SDS011;11614;52.494;6.976;2022-10-18T01:00:28;158.07;;;62.27;;
22894;SDS011;11614;52.494;6.976;2022-10-18T01:02:54;159.77;;;64.83;;
22894;SDS011;11614;52.494;6.976;2022-10-18T01:05:19;182.13;;;67.60;;
22894;SDS011;11614;52.494;6.976;2022-10-18T01:16:01;192.47;;;66.87;;
22894;SDS011;11614;52.494;6.976;2022-10-18T01:21:23;183.43;;;63.37;;
22894;SDS011;11614;52.494;6.976;2022-10-18T01:30:12;181.27;;;63.47;;
22894;SDS011;11614;52.494;6.976;2022-10-18T01:32:47;256.97;;;62.60;;
22894;SDS011;11614;52.494;6.976;2022-10-18T01:35:17;185.70;;;66.20;;
22894;SDS011;11614;52.494;6.976;2022-10-18T01:37:47;174.03;;;67.57;;
22894;SDS011;11614;52.494;6.976;2022-10-18T01:40:17;202.50;;;66.97;;
22894;SDS011;11614;52.494;6.976;2022-10-18T01:42:45;177.77;;;63.03;;
22894;SDS011;11614;52.494;6.976;2022-10-18T01:45:13;160.97;;;60.77;;
22894;SDS011;11614;52.494;6.976;2022-10-18T01:47:41;165.10;;;61.07;;
22894;SDS011;11614;52.494;6.976;2022-10-18T01:50:09;163.57;;;54.43;;
22894;SDS011;11614;52.494;6.976;2022-10-18T01:52:35;561.70;;;81.90;;
22894;SDS011;11614;52.494;6.976;2022-10-18T01:55:01;849.43;;;109.27;;
22894;SDS011;11614;52.494;6.976;2022-10-18T01:57:54;239.23;;;60.37;;
22894;SDS011;11614;52.494;6.976;2022-10-18T02:00:31;172.70;;;60.93;;
22894;SDS011;11614;52.494;6.976;2022-10-18T02:03:21;838.23;;;108.50;;
22894;SDS011;11614;52.494;6.976;2022-10-18T02:08:49;266.23;;;60.83;;
22894;SDS011;11614;52.494;6.976;2022-10-18T02:11:20;213.73;;;59.90;;
22894;SDS011;11614;52.494;6.976;2022-10-18T02:16:13;707.37;;;92.17;;
22894;SDS011;11614;52.494;6.976;2022-10-18T02:18:44;1191.13;;;117.93;;
22894;SDS011;11614;52.494;6.976;2022-10-18T02:21:15;995.93;;;110.47;;
22894;SDS011;11614;52.494;6.976;2022-10-18T02:23:44;166.47;;;58.93;;
22894;SDS011;11614;52.494;6.976;2022-10-18T02:26:10;227.97;;;61.73;;
22894;SDS011;11614;52.494;6.976;2022-10-18T02:28:37;314.77;;;61.87;;
22894;SDS011;11614;52.494;6.976;2022-10-18T02:31:05;121.43;;;52.20;;
22894;SDS011;11614;52.494;6.976;2022-10-18T02:36:18;330.83;;;65.90;;
22894;SDS011;11614;52.494;6.976;2022-10-18T02:38:51;496.40;;;84.47;;
22894;SDS011;11614;52.494;6.976;2022-10-18T02:41:21;186.03;;;55.63;;
22894;SDS011;11614;52.494;6.976;2022-10-18T02:43:50;387.80;;;63.17;;
22894;SDS011;11614;52.494;6.976;2022-10-18T02:46:17;346.97;;;61.77;;
22894;SDS011;11614;52.494;6.976;2022-10-18T02:48:43;451.67;;;76.00;;
22894;SDS011;11614;52.494;6.976;2022-10-18T02:51:08;266.67;;;61.73;;
22894;SDS011;11614;52.494;6.976;2022-10-18T02:53:34;733.37;;;93.20;;
22894;SDS011;11614;52.494;6.976;2022-10-18T02:56:00;478.40;;;76.40;;
22894;SDS011;11614;52.494;6.976;2022-10-18T02:58:27;465.80;;;76.37;;
22894;SDS011;11614;52.494;6.976;2022-10-18T03:00:53;662.63;;;93.70;;
22894;SDS011;11614;52.494;6.976;2022-10-18T03:03:19;594.47;;;92.10;;
22894;SDS011;11614;52.494;6.976;2022-10-18T03:05:47;825.63;;;108.13;;
22894;SDS011;11614;52.494;6.976;2022-10-18T03:08:13;819.57;;;106.77;;
22894;SDS011;11614;52.494;6.976;2022-10-18T03:10:39;747.60;;;101.93;;
22894;SDS011;11614;52.494;6.976;2022-10-18T03:13:08;678.10;;;98.07;;
22894;SDS011;11614;52.494;6.976;2022-10-18T03:15:34;649.33;;;91.97;;
22894;SDS011;11614;52.494;6.976;2022-10-18T03:17:59;677.77;;;97.37;;
22894;SDS011;11614;52.494;6.976;2022-10-18T03:20:25;741.83;;;98.37;;
22894;SDS011;11614;52.494;6.976;2022-10-18T03:22:51;724.77;;;101.13;;
22894;SDS011;11614;52.494;6.976;2022-10-18T03:25:16;699.23;;;99.83;;
22894;SDS011;11614;52.494;6.976;2022-10-18T03:27:42;629.13;;;90.67;;
22894;SDS011;11614;52.494;6.976;2022-10-18T03:30:08;694.17;;;96.70;;
22894;SDS011;11614;52.494;6.976;2022-10-18T03:32:36;588.07;;;86.93;;
22894;SDS011;11614;52.494;6.976;2022-10-18T03:35:02;539.37;;;85.70;;
22894;SDS011;11614;52.494;6.976;2022-10-18T03:37:28;548.30;;;84.03;;
22894;SDS011;11614;52.494;6.976;2022-10-18T03:39:54;610.57;;;88.77;;
22894;SDS011;11614;52.494;6.976;2022-10-18T03:42:19;772.60;;;104.10;;
22894;SDS011;11614;52.494;6.976;2022-10-18T03:44:45;651.60;;;85.80;;
22894;SDS011;11614;52.494;6.976;2022-10-18T03:47:10;736.17;;;92.07;;
22894;SDS011;11614;52.494;6.976;2022-10-18T03:49:36;944.13;;;114.87;;
22894;SDS011;11614;52.494;6.976;2022-10-18T03:52:02;870.03;;;102.73;;
22894;SDS011;11614;52.494;6.976;2022-10-18T03:54:28;550.70;;;80.63;;
22894;SDS011;11614;52.494;6.976;2022-10-18T03:56:53;634.33;;;87.00;;
22894;SDS011;11614;52.494;6.976;2022-10-18T03:59:19;571.90;;;86.20;;
22894;SDS011;11614;52.494;6.976;2022-10-18T04:01:45;565.60;;;81.27;;
22894;SDS011;11614;52.494;6.976;2022-10-18T04:04:10;1001.83;;;114.23;;
22894;SDS011;11614;52.494;6.976;2022-10-18T04:06:36;734.57;;;91.37;;
22894;SDS011;11614;52.494;6.976;2022-10-18T04:09:01;579.93;;;86.67;;
22894;SDS011;11614;52.494;6.976;2022-10-18T04:11:27;440.50;;;72.20;;
22894;SDS011;11614;52.494;6.976;2022-10-18T04:13:53;568.57;;;86.70;;
22894;SDS011;11614;52.494;6.976;2022-10-18T04:16:19;576.03;;;77.60;;
22894;SDS011;11614;52.494;6.976;2022-10-18T04:18:44;520.67;;;82.33;;
22894;SDS011;11614;52.494;6.976;2022-10-18T04:21:10;599.10;;;86.70;;
22894;SDS011;11614;52.494;6.976;2022-10-18T04:23:36;719.47;;;102.97;;
22894;SDS011;11614;52.494;6.976;2022-10-18T04:26:02;659.10;;;93.73;;
22894;SDS011;11614;52.494;6.976;2022-10-18T04:28:27;645.23;;;91.83;;
22894;SDS011;11614;52.494;6.976;2022-10-18T04:30:53;609.10;;;91.63;;
22894;SDS011;11614;52.494;6.976;2022-10-18T04:33:18;609.47;;;83.73;;
22894;SDS011;11614;52.494;6.976;2022-10-18T04:35:45;615.17;;;91.17;;
22894;SDS011;11614;52.494;6.976;2022-10-18T04:38:11;636.87;;;91.43;;
22894;SDS011;11614;52.494;6.976;2022-10-18T04:40:38;646.00;;;91.73;;
22894;SDS011;11614;52.494;6.976;2022-10-18T04:43:04;652.57;;;86.90;;
22894;SDS011;11614;52.494;6.976;2022-10-18T04:45:30;685.67;;;96.13;;
22894;SDS011;11614;52.494;6.976;2022-10-18T04:47:56;734.23;;;95.90;;
22894;SDS011;11614;52.494;6.976;2022-10-18T04:50:22;626.40;;;85.83;;
22894;SDS011;11614;52.494;6.976;2022-10-18T04:52:48;716.60;;;92.33;;
22894;SDS011;11614;52.494;6.976;2022-10-18T04:55:13;759.10;;;97.63;;
22894;SDS011;11614;52.494;6.976;2022-10-18T04:57:39;711.43;;;90.87;;
22894;SDS011;11614;52.494;6.976;2022-10-18T05:00:05;716.77;;;92.93;;
22894;SDS011;11614;52.494;6.976;2022-10-18T05:02:31;625.53;;;86.57;;
22894;SDS011;11614;52.494;6.976;2022-10-18T05:04:56;668.70;;;90.40;;
22894;SDS011;11614;52.494;6.976;2022-10-18T05:07:22;624.77;;;86.20;;
22894;SDS011;11614;52.494;6.976;2022-10-18T05:09:48;698.30;;;91.37;;
22894;SDS011;11614;52.494;6.976;2022-10-18T05:12:14;474.47;;;67.97;;
22894;SDS011;11614;52.494;6.976;2022-10-18T05:14:40;436.00;;;69.70;;
22894;SDS011;11614;52.494;6.976;2022-10-18T05:17:05;409.27;;;65.57;;
22894;SDS011;11614;52.494;6.976;2022-10-18T05:19:31;458.60;;;71.17;;
22894;SDS011;11614;52.494;6.976;2022-10-18T05:21:57;409.47;;;71.37;;
22894;SDS011;11614;52.494;6.976;2022-10-18T05:24:23;346.70;;;61.47;;
22894;SDS011;11614;52.494;6.976;2022-10-18T05:26:48;286.90;;;57.33;;
22894;SDS011;11614;52.494;6.976;2022-10-18T05:29:14;298.67;;;56.10;;
22894;SDS011;11614;52.494;6.976;2022-10-18T05:31:40;455.27;;;66.97;;
22894;SDS011;11614;52.494;6.976;2022-10-18T05:34:05;387.37;;;67.03;;
22894;SDS011;11614;52.494;6.976;2022-10-18T05:36:31;327.63;;;57.97;;
22894;SDS011;11614;52.494;6.976;2022-10-18T05:38:57;393.53;;;63.03;;
22894;SDS011;11614;52.494;6.976;2022-10-18T05:41:22;317.93;;;58.23;;
22894;SDS011;11614;52.494;6.976;2022-10-18T05:43:48;355.37;;;62.70;;
22894;SDS011;11614;52.494;6.976;2022-10-18T05:46:14;363.60;;;62.90;;
22894;SDS011;11614;52.494;6.976;2022-10-18T05:48:40;329.37;;;59.27;;
22894;SDS011;11614;52.494;6.976;2022-10-18T05:51:06;334.27;;;56.97;;
22894;SDS011;11614;52.494;6.976;2022-10-18T05:53:32;304.17;;;55.43;;
22894;SDS011;11614;52.494;6.976;2022-10-18T05:56:01;324.47;;;61.27;;
22894;SDS011;11614;52.494;6.976;2022-10-18T05:58:27;245.80;;;53.43;;
22894;SDS011;11614;52.494;6.976;2022-10-18T06:00:53;261.47;;;55.17;;
22894;SDS011;11614;52.494;6.976;2022-10-18T06:03:19;403.23;;;63.33;;
22894;SDS011;11614;52.494;6.976;2022-10-18T06:05:45;225.10;;;51.63;;
22894;SDS011;11614;52.494;6.976;2022-10-18T06:08:10;210.37;;;52.40;;
22894;SDS011;11614;52.494;6.976;2022-10-18T06:10:37;223.97;;;53.00;;
22894;SDS011;11614;52.494;6.976;2022-10-18T06:13:04;233.43;;;53.07;;
22894;SDS011;11614;52.494;6.976;2022-10-18T06:15:30;194.23;;;49.70;;
22894;SDS011;11614;52.494;6.976;2022-10-18T06:17:56;357.23;;;59.03;;
22894;SDS011;11614;52.494;6.976;2022-10-18T06:20:23;211.07;;;51.80;;
22894;SDS011;11614;52.494;6.976;2022-10-18T06:22:50;282.00;;;53.37;;
22894;SDS011;11614;52.494;6.976;2022-10-18T06:25:17;145.07;;;40.23;;
22894;SDS011;11614;52.494;6.976;2022-10-18T06:27:43;130.57;;;37.87;;
22894;SDS011;11614;52.494;6.976;2022-10-18T06:30:09;122.23;;;36.70;;
22894;SDS011;11614;52.494;6.976;2022-10-18T06:32:35;105.80;;;36.10;;
22894;SDS011;11614;52.494;6.976;2022-10-18T06:35:00;113.23;;;36.00;;
22894;SDS011;11614;52.494;6.976;2022-10-18T06:37:29;117.83;;;35.57;;
22894;SDS011;11614;52.494;6.976;2022-10-18T06:39:55;94.20;;;30.50;;
22894;SDS011;11614;52.494;6.976;2022-10-18T06:42:21;107.57;;;35.43;;
22894;SDS011;11614;52.494;6.976;2022-10-18T06:44:47;108.17;;;34.70;;
22894;SDS011;11614;52.494;6.976;2022-10-18T06:47:13;91.37;;;30.57;;
22894;SDS011;11614;52.494;6.976;2022-10-18T06:49:39;93.90;;;28.93;;
22894;SDS011;11614;52.494;6.976;2022-10-18T06:52:05;96.40;;;30.23;;
22894;SDS011;11614;52.494;6.976;2022-10-18T06:54:31;95.40;;;31.43;;
22894;SDS011;11614;52.494;6.976;2022-10-18T06:56:57;70.40;;;25.90;;
22894;SDS011;11614;52.494;6.976;2022-10-18T06:59:23;104.23;;;30.33;;
22894;SDS011;11614;52.494;6.976;2022-10-18T07:01:48;64.17;;;25.30;;
22894;SDS011;11614;52.494;6.976;2022-10-18T07:04:14;67.13;;;26.63;;
22894;SDS011;11614;52.494;6.976;2022-10-18T07:06:40;52.70;;;23.63;;
22894;SDS011;11614;52.494;6.976;2022-10-18T07:09:06;58.43;;;25.77;;
22894;SDS011;11614;52.494;6.976;2022-10-18T07:11:32;65.70;;;26.63;;
22894;SDS011;11614;52.494;6.976;2022-10-18T07:13:59;71.93;;;25.33;;
22894;SDS011;11614;52.494;6.976;2022-10-18T07:16:27;60.00;;;27.13;;
22894;SDS011;11614;52.494;6.976;2022-10-18T07:18:53;66.77;;;25.17;;
22894;SDS011;11614;52.494;6.976;2022-10-18T07:21:21;57.00;;;25.37;;
22894;SDS011;11614;52.494;6.976;2022-10-18T07:23:48;56.93;;;25.50;;
22894;SDS011;11614;52.494;6.976;2022-10-18T07:26:27;58.07;;;24.30;;
22894;SDS011;11614;52.494;6.976;2022-10-18T07:28:58;52.40;;;25.10;;
22894;SDS011;11614;52.494;6.976;2022-10-18T07:31:32;58.13;;;26.20;;
22894;SDS011;11614;52.494;6.976;2022-10-18T07:33:58;40.93;;;19.00;;
22894;SDS011;11614;52.494;6.976;2022-10-18T07:36:23;46.90;;;23.90;;
22894;SDS011;11614;52.494;6.976;2022-10-18T07:38:50;53.07;;;24.50;;
22894;SDS011;11614;52.494;6.976;2022-10-18T07:41:16;39.07;;;17.67;;
22894;SDS011;11614;52.494;6.976;2022-10-18T07:43:44;36.30;;;13.93;;
22894;SDS011;11614;52.494;6.976;2022-10-18T07:46:11;40.10;;;17.53;;
22894;SDS011;11614;52.494;6.976;2022-10-18T07:48:38;42.60;;;21.00;;
22894;SDS011;11614;52.494;6.976;2022-10-18T07:51:04;48.10;;;23.37;;
22894;SDS011;11614;52.494;6.976;2022-10-18T07:53:30;44.53;;;22.07;;
22894;SDS011;11614;52.494;6.976;2022-10-18T07:55:57;42.37;;;22.23;;
22894;SDS011;11614;52.494;6.976;2022-10-18T07:58:26;38.47;;;19.70;;
22894;SDS011;11614;52.494;6.976;2022-10-18T08:00:52;42.43;;;23.40;;
22894;SDS011;11614;52.494;6.976;2022-10-18T08:03:18;37.80;;;20.03;;
22894;SDS011;11614;52.494;6.976;2022-10-18T08:05:49;41.63;;;21.93;;
22894;SDS011;11614;52.494;6.976;2022-10-18T08:08:16;36.70;;;20.53;;
22894;SDS011;11614;52.494;6.976;2022-10-18T08:10:42;45.23;;;23.97;;
22894;SDS011;11614;52.494;6.976;2022-10-18T08:13:07;32.27;;;19.33;;
22894;SDS011;11614;52.494;6.976;2022-10-18T08:15:33;37.87;;;19.63;;
22894;SDS011;11614;52.494;6.976;2022-10-18T08:17:59;30.57;;;18.77;;
22894;SDS011;11614;52.494;6.976;2022-10-18T08:20:25;29.47;;;17.50;;
22894;SDS011;11614;52.494;6.976;2022-10-18T08:22:51;30.13;;;16.87;;
22894;SDS011;11614;52.494;6.976;2022-10-18T08:25:17;30.97;;;17.33;;
22894;SDS011;11614;52.494;6.976;2022-10-18T08:27:43;55.83;;;33.73;;
22894;SDS011;11614;52.494;6.976;2022-10-18T08:30:09;28.07;;;17.43;;
22894;SDS011;11614;52.494;6.976;2022-10-18T08:32:35;24.03;;;14.87;;
22894;SDS011;11614;52.494;6.976;2022-10-18T08:35:01;27.63;;;15.00;;
22894;SDS011;11614;52.494;6.976;2022-10-18T08:37:27;29.87;;;16.63;;
22894;SDS011;11614;52.494;6.976;2022-10-18T08:39:53;31.63;;;17.53;;
22894;SDS011;11614;52.494;6.976;2022-10-18T08:42:22;33.63;;;16.97;;
22894;SDS011;11614;52.494;6.976;2022-10-18T08:44:50;25.43;;;13.67;;
22894;SDS011;11614;52.494;6.976;2022-10-18T08:47:17;26.70;;;15.10;;
22894;SDS011;11614;52.494;6.976;2022-10-18T08:49:51;25.13;;;15.40;;
22894;SDS011;11614;52.494;6.976;2022-10-18T08:52:29;36.60;;;19.98;;
22894;SDS011;11614;52.494;6.976;2022-10-18T08:55:00;30.07;;;19.87;;
22894;SDS011;11614;52.494;6.976;2022-10-18T08:57:27;30.20;;;19.17;;
22894;SDS011;11614;52.494;6.976;2022-10-18T08:59:53;34.20;;;20.10;;
22894;SDS011;11614;52.494;6.976;2022-10-18T09:07:36;31.25;;;16.75;;
22894;SDS011;11614;52.494;6.976;2022-10-18T09:15:23;24.95;;;13.50;;
22894;SDS011;11614;52.494;6.976;2022-10-18T09:25:34;22.00;;;12.48;;
22894;SDS011;11614;52.494;6.976;2022-10-18T09:30:40;14.02;;;9.63;;
22894;SDS011;11614;52.494;6.976;2022-10-18T09:36:04;13.98;;;8.75;;
22894;SDS011;11614;52.494;6.976;2022-10-18T09:41:29;17.85;;;10.05;;
22894;SDS011;11614;52.494;6.976;2022-10-18T09:44:00;18.95;;;10.63;;
22894;SDS011;11614;52.494;6.976;2022-10-18T09:46:31;17.00;;;9.32;;
22894;SDS011;11614;52.494;6.976;2022-10-18T09:48:59;17.02;;;9.68;;
22894;SDS011;11614;52.494;6.976;2022-10-18T09:51:29;19.15;;;10.15;;
22894;SDS011;11614;52.494;6.976;2022-10-18T09:56:55;12.90;;;8.60;;
22894;SDS011;11614;52.494;6.976;2022-10-18T09:59:35;15.95;;;9.80;;
22894;SDS011;11614;52.494;6.976;2022-10-18T10:02:02;18.13;;;10.70;;
22894;SDS011;11614;52.494;6.976;2022-10-18T10:04:28;16.25;;;9.13;;
22894;SDS011;11614;52.494;6.976;2022-10-18T10:06:55;18.25;;;8.90;;
22894;SDS011;11614;52.494;6.976;2022-10-18T10:11:54;14.32;;;8.55;;
22894;SDS011;11614;52.494;6.976;2022-10-18T10:14:21;12.27;;;6.88;;
22894;SDS011;11614;52.494;6.976;2022-10-18T10:19:36;11.55;;;7.25;;
22894;SDS011;11614;52.494;6.976;2022-10-18T10:22:08;12.57;;;6.45;;
22894;SDS011;11614;52.494;6.976;2022-10-18T10:24:50;10.50;;;6.57;;
22894;SDS011;11614;52.494;6.976;2022-10-18T10:27:20;9.65;;;5.93;;
22894;SDS011;11614;52.494;6.976;2022-10-18T10:29:50;7.97;;;4.70;;
22894;SDS011;11614;52.494;6.976;2022-10-18T10:32:20;7.78;;;3.63;;
22894;SDS011;11614;52.494;6.976;2022-10-18T10:34:47;13.02;;;4.65;;
22894;SDS011;11614;52.494;6.976;2022-10-18T10:42:29;5.57;;;2.90;;
22894;SDS011;11614;52.494;6.976;2022-10-18T10:44:55;6.88;;;4.13;;
22894;SDS011;11614;52.494;6.976;2022-10-18T10:47:27;8.93;;;4.68;;
22894;SDS011;11614;52.494;6.976;2022-10-18T10:49:53;10.25;;;4.80;;
22894;SDS011;11614;52.494;6.976;2022-10-18T10:52:22;8.38;;;5.43;;
22894;SDS011;11614;52.494;6.976;2022-10-18T10:54:51;8.88;;;4.68;;
22894;SDS011;11614;52.494;6.976;2022-10-18T10:57:21;9.43;;;5.15;;
22894;SDS011;11614;52.494;6.976;2022-10-18T10:59:50;13.05;;;5.43;;
22894;SDS011;11614;52.494;6.976;2022-10-18T11:02:25;6.80;;;4.07;;
22894;SDS011;11614;52.494;6.976;2022-10-18T11:04:54;9.50;;;5.05;;
22894;SDS011;11614;52.494;6.976;2022-10-18T11:07:29;10.95;;;5.57;;
22894;SDS011;11614;52.494;6.976;2022-10-18T11:15:37;5.82;;;3.92;;
22894;SDS011;11614;52.494;6.976;2022-10-18T11:20:41;5.28;;;3.65;;
22894;SDS011;11614;52.494;6.976;2022-10-18T11:23:11;7.70;;;4.55;;
22894;SDS011;11614;52.494;6.976;2022-10-18T11:36:16;7.35;;;3.33;;
22894;SDS011;11614;52.494;6.976;2022-10-18T11:43:57;6.60;;;3.20;;
22894;SDS011;11614;52.494;6.976;2022-10-18T11:56:54;7.18;;;3.10;;
22894;SDS011;11614;52.494;6.976;2022-10-18T12:02:24;6.35;;;5.00;;
22894;SDS011;11614;52.494;6.976;2022-10-18T12:04:59;6.35;;;3.90;;
22894;SDS011;11614;52.494;6.976;2022-10-18T12:07:29;6.20;;;4.18;;
22894;SDS011;11614;52.494;6.976;2022-10-18T12:09:56;6.30;;;3.53;;
22894;SDS011;11614;52.494;6.976;2022-10-18T12:15:26;6.07;;;3.50;;
22894;SDS011;11614;52.494;6.976;2022-10-18T12:17:53;10.82;;;3.70;;
22894;SDS011;11614;52.494;6.976;2022-10-18T12:20:24;6.50;;;2.85;;
22894;SDS011;11614;52.494;6.976;2022-10-18T12:22:58;3.75;;;2.47;;
22894;SDS011;11614;52.494;6.976;2022-10-18T12:25:25;3.80;;;2.65;;
22894;SDS011;11614;52.494;6.976;2022-10-18T12:27:54;7.25;;;2.55;;
22894;SDS011;11614;52.494;6.976;2022-10-18T12:32:47;5.10;;;2.33;;
22894;SDS011;11614;52.494;6.976;2022-10-18T12:35:14;7.72;;;2.10;;
22894;SDS011;11614;52.494;6.976;2022-10-18T12:40:30;3.05;;;1.95;;
22894;SDS011;11614;52.494;6.976;2022-10-18T12:42:58;6.10;;;2.42;;
22894;SDS011;11614;52.494;6.976;2022-10-18T12:45:31;2.85;;;1.42;;
22894;SDS011;11614;52.494;6.976;2022-10-18T12:48:07;4.93;;;4.07;;
22894;SDS011;11614;52.494;6.976;2022-10-18T12:50:44;2.60;;;1.30;;
22894;SDS011;11614;52.494;6.976;2022-10-18T12:53:24;3.20;;;1.85;;
22894;SDS011;11614;52.494;6.976;2022-10-18T12:55:51;5.20;;;1.80;;
22894;SDS011;11614;52.494;6.976;2022-10-18T13:13:38;3.53;;;1.77;;
22894;SDS011;11614;52.494;6.976;2022-10-18T13:18:53;6.28;;;1.98;;
22894;SDS011;11614;52.494;6.976;2022-10-18T13:26:46;5.68;;;1.85;;
22894;SDS011;11614;52.494;6.976;2022-10-18T13:34:34;4.45;;;1.80;;
22894;SDS011;11614;52.494;6.976;2022-10-18T13:39:36;6.63;;;2.00;;
22894;SDS011;11614;52.494;6.976;2022-10-18T13:44:29;4.38;;;2.20;;
22894;SDS011;11614;52.494;6.976;2022-10-18T13:54:42;4.78;;;1.70;;
22894;SDS011;11614;52.494;6.976;2022-10-18T13:57:20;5.72;;;2.47;;
22894;SDS011;11614;52.494;6.976;2022-10-18T14:00:34;6.72;;;1.67;;
22894;SDS011;11614;52.494;6.976;2022-10-18T14:07:51;7.90;;;1.30;;
22894;SDS011;11614;52.494;6.976;2022-10-18T14:10:23;5.45;;;1.73;;
22894;SDS011;11614;52.494;6.976;2022-10-18T14:12:52;6.13;;;1.95;;
22894;SDS011;11614;52.494;6.976;2022-10-18T14:15:24;5.15;;;1.70;;
22894;SDS011;11614;52.494;6.976;2022-10-18T14:20:36;5.05;;;1.55;;
22894;SDS011;11614;52.494;6.976;2022-10-18T14:25:38;5.05;;;1.52;;
22894;SDS011;11614;52.494;6.976;2022-10-18T14:31:17;5.25;;;1.35;;
22894;SDS011;11614;52.494;6.976;2022-10-18T14:33:36;4.60;;;1.85;;
22894;SDS011;11614;52.494;6.976;2022-10-18T14:36:12;6.55;;;1.67;;
22894;SDS011;11614;52.494;6.976;2022-10-18T14:38:46;6.45;;;1.60;;
22894;SDS011;11614;52.494;6.976;2022-10-18T14:41:14;9.27;;;1.48;;
22894;SDS011;11614;52.494;6.976;2022-10-18T14:43:41;7.53;;;2.00;;
22894;SDS011;11614;52.494;6.976;2022-10-18T14:46:08;4.55;;;1.52;;
22894;SDS011;11614;52.494;6.976;2022-10-18T14:48:34;5.82;;;2.03;;
22894;SDS011;11614;52.494;6.976;2022-10-18T14:51:00;5.40;;;1.38;;
22894;SDS011;11614;52.494;6.976;2022-10-18T14:53:29;5.90;;;1.33;;
22894;SDS011;11614;52.494;6.976;2022-10-18T14:56:00;6.13;;;1.70;;
22894;SDS011;11614;52.494;6.976;2022-10-18T14:58:29;3.72;;;1.30;;
22894;SDS011;11614;52.494;6.976;2022-10-18T15:00:56;5.00;;;1.30;;
22894;SDS011;11614;52.494;6.976;2022-10-18T15:03:23;3.65;;;1.30;;
22894;SDS011;11614;52.494;6.976;2022-10-18T15:05:54;3.08;;;1.10;;
22894;SDS011;11614;52.494;6.976;2022-10-18T15:08:20;4.15;;;1.30;;
22894;SDS011;11614;52.494;6.976;2022-10-18T15:10:48;7.03;;;1.80;;
22894;SDS011;11614;52.494;6.976;2022-10-18T15:13:14;8.23;;;1.90;;
22894;SDS011;11614;52.494;6.976;2022-10-18T15:15:40;3.22;;;1.17;;
22894;SDS011;11614;52.494;6.976;2022-10-18T15:18:29;6.57;;;1.65;;
22894;SDS011;11614;52.494;6.976;2022-10-18T15:24:17;8.68;;;1.95;;
22894;SDS011;11614;52.494;6.976;2022-10-18T15:26:44;4.97;;;1.27;;
22894;SDS011;11614;52.494;6.976;2022-10-18T15:29:15;5.38;;;1.70;;
22894;SDS011;11614;52.494;6.976;2022-10-18T15:31:41;8.77;;;1.55;;
22894;SDS011;11614;52.494;6.976;2022-10-18T15:36:41;10.18;;;1.65;;
22894;SDS011;11614;52.494;6.976;2022-10-18T15:39:20;6.43;;;1.27;;
22894;SDS011;11614;52.494;6.976;2022-10-18T15:46:53;3.73;;;1.07;;
22894;SDS011;11614;52.494;6.976;2022-10-18T15:49:45;7.33;;;1.50;;
22894;SDS011;11614;52.494;6.976;2022-10-18T15:54:53;7.50;;;1.83;;
22894;SDS011;11614;52.494;6.976;2022-10-18T15:57:19;7.43;;;1.60;;
22894;SDS011;11614;52.494;6.976;2022-10-18T16:00:03;13.50;;;4.90;;
22894;SDS011;11614;52.494;6.976;2022-10-18T16:02:30;9.13;;;2.00;;
22894;SDS011;11614;52.494;6.976;2022-10-18T16:04:59;10.60;;;5.23;;
22894;SDS011;11614;52.494;6.976;2022-10-18T16:07:26;7.63;;;2.03;;
22894;SDS011;11614;52.494;6.976;2022-10-18T16:09:52;7.63;;;1.90;;
22894;SDS011;11614;52.494;6.976;2022-10-18T16:12:17;10.13;;;3.43;;
22894;SDS011;11614;52.494;6.976;2022-10-18T16:14:43;11.13;;;5.17;;
22894;SDS011;11614;52.494;6.976;2022-10-18T16:17:10;15.00;;;7.37;;
22894;SDS011;11614;52.494;6.976;2022-10-18T16:19:41;10.37;;;3.87;;
22894;SDS011;11614;52.494;6.976;2022-10-18T16:22:08;9.67;;;6.80;;
22894;SDS011;11614;52.494;6.976;2022-10-18T16:24:35;14.63;;;5.97;;
22894;SDS011;11614;52.494;6.976;2022-10-18T16:27:01;117.73;;;67.60;;
22894;SDS011;11614;52.494;6.976;2022-10-18T16:29:27;118.27;;;66.80;;
22894;SDS011;11614;52.494;6.976;2022-10-18T16:31:56;51.77;;;30.90;;
22894;SDS011;11614;52.494;6.976;2022-10-18T16:34:22;16.73;;;7.03;;
22894;SDS011;11614;52.494;6.976;2022-10-18T16:36:50;21.47;;;8.60;;
22894;SDS011;11614;52.494;6.976;2022-10-18T16:39:17;17.63;;;7.87;;
22894;SDS011;11614;52.494;6.976;2022-10-18T16:41:43;49.77;;;26.77;;
22894;SDS011;11614;52.494;6.976;2022-10-18T16:44:10;30.47;;;14.07;;
22894;SDS011;11614;52.494;6.976;2022-10-18T16:46:36;24.03;;;10.23;;
22894;SDS011;11614;52.494;6.976;2022-10-18T16:49:02;19.73;;;7.27;;
22894;SDS011;11614;52.494;6.976;2022-10-18T16:51:28;13.53;;;4.93;;
22894;SDS011;11614;52.494;6.976;2022-10-18T16:53:55;29.03;;;14.97;;
22894;SDS011;11614;52.494;6.976;2022-10-18T16:56:21;23.83;;;12.70;;
22894;SDS011;11614;52.494;6.976;2022-10-18T16:58:49;26.43;;;13.20;;
22894;SDS011;11614;52.494;6.976;2022-10-18T17:01:16;37.83;;;19.67;;
22894;SDS011;11614;52.494;6.976;2022-10-18T17:03:42;23.27;;;12.37;;
22894;SDS011;11614;52.494;6.976;2022-10-18T17:06:16;32.40;;;14.43;;
22894;SDS011;11614;52.494;6.976;2022-10-18T17:08:42;20.20;;;7.63;;
22894;SDS011;11614;52.494;6.976;2022-10-18T17:11:08;14.23;;;5.13;;
22894;SDS011;11614;52.494;6.976;2022-10-18T17:13:34;17.20;;;7.83;;
22894;SDS011;11614;52.494;6.976;2022-10-18T17:16:00;15.83;;;5.77;;
22894;SDS011;11614;52.494;6.976;2022-10-18T17:18:29;14.67;;;7.63;;
22894;SDS011;11614;52.494;6.976;2022-10-18T17:20:56;16.57;;;6.23;;
22894;SDS011;11614;52.494;6.976;2022-10-18T17:23:24;10.00;;;3.20;;
22894;SDS011;11614;52.494;6.976;2022-10-18T17:25:50;9.50;;;4.10;;
22894;SDS011;11614;52.494;6.976;2022-10-18T17:28:17;12.37;;;4.80;;
22894;SDS011;11614;52.494;6.976;2022-10-18T17:30:44;11.50;;;4.03;;